Time;durP1;ratioP1;P1;durP2;ratioP2;P2;SDS_P1;SDS_P2;PMS_P1;PMS_P2;Temp;Humidity;BMP_temperature;BMP_pressure;BME280_temperature;BME280_humidity;BME280_pressure;Samples;Min_cycle;Max_cycle;Signal;HPM_P1;HPM_P2
2024/03/26 00:02:13;;;;;;;12.10;7.05;;;6.80;97.70;;;;;;5053181;28;20038;-67
2024/03/26 00:04:59;;;;;;;9.15;5.38;;;6.80;97.80;;;;;;5053961;28;20047;-67
2024/03/26 00:07:45;;;;;;;12.80;7.50;;;6.80;97.80;;;;;;5035852;28;20044;-67
2024/03/26 00:10:31;;;;;;;12.23;6.78;;;6.70;97.80;;;;;;4996524;28;20046;-67
2024/03/26 00:13:17;;;;;;;11.70;7.25;;;6.70;97.90;;;;;;5006985;28;20050;-68
2024/03/26 00:16:03;;;;;;;9.18;6.10;;;6.70;97.90;;;;;;5063324;28;20384;-68
2024/03/26 00:18:49;;;;;;;9.93;6.65;;;6.60;98.00;;;;;;5073165;28;20038;-68
2024/03/26 00:21:35;;;;;;;11.40;5.32;;;6.60;98.00;;;;;;4978029;28;20043;-68
2024/03/26 00:24:22;;;;;;;9.65;5.43;;;6.60;98.10;;;;;;4987673;28;20062;-67
2024/03/26 00:27:08;;;;;;;8.05;5.30;;;6.50;98.10;;;;;;4992376;28;20051;-67
2024/03/26 00:29:54;;;;;;;11.00;6.40;;;6.50;98.20;;;;;;4980813;28;20129;-67
2024/03/26 00:32:41;;;;;;;8.23;5.97;;;6.50;98.20;;;;;;4991592;28;20088;-67
2024/03/26 00:35:26;;;;;;;8.82;5.55;;;6.40;98.30;;;;;;4990947;28;20055;-67
2024/03/26 00:38:12;;;;;;;12.68;6.13;;;6.40;98.30;;;;;;4991610;28;20417;-68
2024/03/26 00:40:58;;;;;;;7.07;5.22;;;6.40;98.40;;;;;;4987980;28;20046;-68
2024/03/26 00:43:45;;;;;;;9.25;5.93;;;6.40;98.50;;;;;;5001913;28;20069;-67
2024/03/26 00:46:31;;;;;;;9.45;5.93;;;6.40;98.50;;;;;;4972437;28;20046;-67
2024/03/26 00:49:17;;;;;;;14.00;7.93;;;6.40;98.50;;;;;;4987572;28;20412;-67
2024/03/26 00:52:03;;;;;;;10.25;5.78;;;6.30;98.50;;;;;;5014254;28;20465;-67
2024/03/26 00:54:48;;;;;;;9.80;5.38;;;6.40;98.60;;;;;;5017560;28;20054;-67
2024/03/26 00:57:34;;;;;;;9.52;5.28;;;6.30;98.70;;;;;;4991409;28;20038;-67
2024/03/26 01:00:20;;;;;;;10.55;5.90;;;6.30;98.70;;;;;;4987539;28;20493;-67
2024/03/26 01:03:06;;;;;;;8.05;5.15;;;6.30;98.80;;;;;;4989998;28;20050;-67
2024/03/26 01:05:57;;;;;;;6.93;4.82;;;6.30;98.80;;;;;;5033138;28;20046;-67
2024/03/26 01:08:43;;;;;;;8.77;5.32;;;6.20;98.90;;;;;;4971239;28;20039;-67
2024/03/26 01:11:28;;;;;;;8.85;5.53;;;6.20;98.90;;;;;;4981491;28;20046;-68
2024/03/26 01:14:14;;;;;;;7.53;5.30;;;6.10;98.90;;;;;;4991480;28;20058;-68
2024/03/26 01:17:00;;;;;;;8.13;5.32;;;6.20;99.00;;;;;;4980474;28;20145;-68
2024/03/26 01:19:46;;;;;;;7.82;4.50;;;6.10;99.00;;;;;;4980942;28;20046;-67
2024/03/26 01:22:32;;;;;;;7.63;4.68;;;6.00;99.00;;;;;;4991500;28;20042;-67
2024/03/26 01:25:18;;;;;;;8.27;4.75;;;6.10;99.10;;;;;;4987757;28;20054;-67
2024/03/26 01:28:04;;;;;;;8.10;4.88;;;6.00;99.10;;;;;;4974222;28;20039;-67
2024/03/26 01:30:50;;;;;;;9.40;5.60;;;6.10;99.10;;;;;;4972193;28;20520;-67
2024/03/26 01:33:36;;;;;;;10.38;4.90;;;6.10;99.20;;;;;;4971732;28;20506;-67
2024/03/26 01:36:22;;;;;;;8.18;5.00;;;6.00;99.20;;;;;;5015452;28;20189;-67
2024/03/26 01:39:08;;;;;;;8.70;5.78;;;6.00;99.20;;;;;;5030592;28;20072;-67
2024/03/26 01:41:54;;;;;;;7.95;5.30;;;6.00;99.30;;;;;;4995973;28;20035;-67
2024/03/26 01:44:39;;;;;;;6.78;4.60;;;6.00;99.30;;;;;;5011963;28;20128;-67
2024/03/26 01:47:26;;;;;;;7.63;4.75;;;5.90;99.30;;;;;;5015068;28;20040;-68
2024/03/26 01:50:16;;;;;;;8.77;5.43;;;5.90;99.40;;;;;;5022402;28;20483;-68
2024/03/26 01:53:05;;;;;;;7.10;4.82;;;5.90;99.40;;;;;;4972694;28;20426;-68
2024/03/26 01:55:51;;;;;;;8.52;4.40;;;5.90;99.40;;;;;;5045107;28;20049;-68
2024/03/26 01:58:37;;;;;;;7.10;4.45;;;5.90;99.40;;;;;;5033288;28;20044;-67
2024/03/26 02:01:26;;;;;;;8.82;4.28;;;5.90;99.50;;;;;;5040361;28;20066;-68
2024/03/26 02:04:12;;;;;;;10.38;4.93;;;5.80;99.50;;;;;;4990165;28;20049;-68
2024/03/26 02:06:58;;;;;;;7.10;4.22;;;5.80;99.50;;;;;;4989022;28;20038;-68
2024/03/26 02:09:46;;;;;;;8.35;5.18;;;5.80;99.60;;;;;;5050079;28;20035;-67
2024/03/26 02:12:32;;;;;;;7.70;4.20;;;5.80;99.60;;;;;;5013087;28;20053;-67
2024/03/26 02:15:17;;;;;;;8.15;4.40;;;5.80;99.60;;;;;;4990975;28;20057;-68
2024/03/26 02:18:04;;;;;;;7.35;4.65;;;5.80;99.60;;;;;;4998779;28;20091;-68
2024/03/26 02:20:50;;;;;;;6.88;4.72;;;5.70;99.70;;;;;;5068460;28;20635;-68
2024/03/26 02:23:36;;;;;;;7.95;4.50;;;5.70;99.70;;;;;;5053234;28;20125;-68
2024/03/26 02:26:22;;;;;;;9.27;4.65;;;5.70;99.70;;;;;;5037154;28;20047;-68
2024/03/26 02:29:09;;;;;;;6.78;4.40;;;5.70;99.70;;;;;;4976954;28;20109;-67
2024/03/26 02:31:55;;;;;;;8.32;4.82;;;5.70;99.70;;;;;;4997672;28;20046;-67
2024/03/26 02:34:41;;;;;;;10.63;4.57;;;5.70;99.80;;;;;;4977238;28;20042;-67
2024/03/26 02:37:27;;;;;;;7.60;4.30;;;5.70;99.80;;;;;;4970834;28;20125;-68
2024/03/26 02:40:13;;;;;;;8.30;4.70;;;5.70;99.90;;;;;;5006311;28;20042;-68
2024/03/26 02:43:02;;;;;;;5.70;4.05;;;5.70;99.90;;;;;;4971586;28;20449;-68
2024/03/26 02:45:48;;;;;;;6.43;4.38;;;5.70;99.90;;;;;;4977824;28;20035;-68
2024/03/26 02:48:34;;;;;;;7.50;4.72;;;5.70;99.90;;;;;;5000551;28;20018;-67
2024/03/26 02:51:20;;;;;;;7.00;4.75;;;5.70;99.90;;;;;;5011214;28;20063;-69
2024/03/26 02:54:06;;;;;;;5.80;4.07;;;5.60;99.90;;;;;;4988622;28;20103;-68
2024/03/26 02:56:52;;;;;;;7.18;4.38;;;5.70;99.90;;;;;;4989771;28;20038;-68
2024/03/26 02:59:37;;;;;;;6.85;4.00;;;5.60;99.90;;;;;;4978683;28;20038;-67
2024/03/26 03:02:23;;;;;;;11.10;4.50;;;5.60;99.90;;;;;;4981938;28;20535;-67
2024/03/26 03:05:10;;;;;;;10.15;5.15;;;5.60;99.90;;;;;;4996451;28;20107;-67
2024/03/26 03:07:55;;;;;;;7.63;5.00;;;5.60;99.90;;;;;;4987356;28;20046;-66
2024/03/26 03:10:41;;;;;;;11.82;4.82;;;5.60;99.90;;;;;;4977533;28;20051;-66
2024/03/26 03:13:27;;;;;;;6.38;4.30;;;5.50;99.90;;;;;;5051095;28;20052;-66
2024/03/26 03:16:13;;;;;;;6.22;4.45;;;5.50;99.90;;;;;;4976934;28;20188;-67
2024/03/26 03:18:59;;;;;;;8.68;3.60;;;5.50;99.90;;;;;;4972028;28;20053;-67
2024/03/26 03:21:45;;;;;;;7.95;4.40;;;5.40;99.90;;;;;;4975529;28;20092;-67
2024/03/26 03:24:31;;;;;;;8.60;4.38;;;5.40;99.90;;;;;;5008999;28;20042;-67
2024/03/26 03:27:17;;;;;;;10.25;4.45;;;5.30;99.90;;;;;;4988529;28;20504;-67
2024/03/26 03:30:03;;;;;;;7.50;4.03;;;5.30;99.90;;;;;;4988281;28;20043;-67
2024/03/26 03:32:49;;;;;;;7.18;4.05;;;5.30;99.90;;;;;;4972004;28;20043;-67
2024/03/26 03:35:40;;;;;;;6.20;4.45;;;5.30;99.90;;;;;;4971605;28;20074;-66
2024/03/26 03:38:26;;;;;;;7.88;4.57;;;5.30;99.90;;;;;;4973352;28;20058;-67
2024/03/26 03:41:12;;;;;;;6.95;4.43;;;5.30;99.90;;;;;;4987211;28;20490;-67
2024/03/26 03:43:58;;;;;;;5.65;3.90;;;5.30;99.90;;;;;;4988815;28;20050;-67
2024/03/26 03:46:44;;;;;;;6.85;4.70;;;5.30;99.90;;;;;;5075743;28;20047;-67
2024/03/26 03:49:30;;;;;;;6.40;4.07;;;5.30;99.90;;;;;;5008270;28;20071;-67
2024/03/26 03:52:16;;;;;;;6.85;4.07;;;5.20;99.90;;;;;;4973105;28;20448;-68
2024/03/26 03:55:02;;;;;;;8.45;4.07;;;5.20;99.90;;;;;;5017096;28;20494;-68
2024/03/26 03:57:48;;;;;;;7.68;4.07;;;5.10;99.90;;;;;;4977881;28;20042;-68
2024/03/26 04:00:34;;;;;;;6.05;4.03;;;5.10;99.90;;;;;;4991455;28;20095;-68
2024/03/26 04:03:20;;;;;;;5.78;3.78;;;5.10;99.90;;;;;;4991953;28;20050;-67
2024/03/26 04:06:06;;;;;;;6.38;3.80;;;5.10;99.90;;;;;;4983470;28;20035;-66
2024/03/26 04:08:52;;;;;;;7.18;4.32;;;5.00;99.90;;;;;;5038553;28;20057;-67
2024/03/26 04:11:38;;;;;;;7.07;3.97;;;5.00;99.90;;;;;;4972379;28;20062;-68
2024/03/26 04:14:25;;;;;;;6.47;4.25;;;5.00;99.90;;;;;;4992843;28;20504;-66
2024/03/26 04:17:11;;;;;;;6.72;3.75;;;5.00;99.90;;;;;;4997069;28;20044;-67
2024/03/26 04:19:57;;;;;;;8.25;3.85;;;5.00;99.90;;;;;;4991463;28;20133;-67
2024/03/26 04:22:46;;;;;;;7.20;4.82;;;5.00;99.90;;;;;;4978192;28;20051;-67
2024/03/26 04:25:32;;;;;;;6.70;3.92;;;4.90;99.90;;;;;;4983510;28;20104;-67
2024/03/26 04:28:18;;;;;;;7.07;4.13;;;4.90;99.90;;;;;;4991245;28;20046;-67
2024/03/26 04:31:04;;;;;;;5.55;3.45;;;4.90;99.90;;;;;;4991168;28;20076;-67
2024/03/26 04:33:50;;;;;;;6.00;4.25;;;4.90;99.90;;;;;;4990891;28;20244;-67
2024/03/26 04:36:36;;;;;;;7.95;4.30;;;4.90;99.90;;;;;;5052685;28;20117;-67
2024/03/26 05:17:41;;;;;;;6.30;3.83;;;4.70;99.90;;;;;;5107752;27;20446;-73
2024/03/26 05:20:27;;;;;;;6.50;4.00;;;4.70;99.90;;;;;;5076919;28;20441;-68
2024/03/26 05:23:14;;;;;;;6.38;4.55;;;4.70;99.90;;;;;;5084959;28;20510;-73
2024/03/26 05:26:00;;;;;;;9.38;5.00;;;4.90;99.90;;;;;;5087120;28;20028;-69
2024/03/26 05:28:46;;;;;;;9.38;4.35;;;4.80;99.90;;;;;;5076577;28;20428;-69
2024/03/26 05:31:32;;;;;;;8.07;4.60;;;4.90;99.90;;;;;;5067860;28;20017;-68
2024/03/26 05:34:18;;;;;;;7.60;4.65;;;4.90;99.90;;;;;;5077559;28;20111;-68
2024/03/26 05:37:04;;;;;;;7.78;4.10;;;4.90;99.90;;;;;;5067599;28;20172;-68
2024/03/26 05:39:50;;;;;;;9.48;4.25;;;4.90;99.90;;;;;;5076100;28;20540;-67
2024/03/26 05:42:35;;;;;;;5.65;3.63;;;5.00;99.90;;;;;;5087611;28;20029;-68
2024/03/26 05:45:23;;;;;;;7.55;4.03;;;5.00;99.90;;;;;;5075202;28;20107;-68
2024/03/26 05:48:09;;;;;;;8.75;4.40;;;5.00;99.90;;;;;;5076136;28;20025;-69
2024/03/26 05:50:55;;;;;;;6.82;4.32;;;5.00;99.90;;;;;;5085630;28;20034;-69
2024/03/26 05:53:42;;;;;;;6.72;3.97;;;5.00;99.90;;;;;;5081460;28;20036;-69
2024/03/26 05:56:28;;;;;;;6.90;4.28;;;5.20;99.90;;;;;;5082066;28;20400;-68
2024/03/26 05:59:14;;;;;;;5.70;3.90;;;5.20;99.90;;;;;;5078384;28;20488;-69
2024/03/26 06:01:59;;;;;;;6.70;4.00;;;5.20;99.90;;;;;;5085971;28;20492;-69
2024/03/26 06:04:45;;;;;;;7.55;4.85;;;5.20;99.90;;;;;;5079995;28;20507;-69
2024/03/26 06:07:31;;;;;;;7.07;4.25;;;5.30;99.90;;;;;;5068414;28;20120;-68
2024/03/26 06:10:17;;;;;;;7.03;3.97;;;5.30;99.90;;;;;;5069568;28;20016;-69
2024/03/26 06:13:03;;;;;;;7.28;3.92;;;5.40;99.90;;;;;;5064696;28;20392;-69
2024/03/26 06:15:49;;;;;;;6.95;4.18;;;5.40;99.90;;;;;;5075473;28;20456;-68
2024/03/26 06:18:36;;;;;;;8.18;4.40;;;5.50;99.90;;;;;;5073566;28;20032;-69
2024/03/26 06:21:22;;;;;;;12.20;4.93;;;5.50;99.90;;;;;;5097699;28;20449;-68
2024/03/26 06:24:08;;;;;;;11.98;4.10;;;5.60;99.90;;;;;;5105758;28;20034;-68
2024/03/26 06:26:54;;;;;;;10.48;4.88;;;5.70;99.90;;;;;;5118479;27;20488;-69
2024/03/26 06:29:40;;;;;;;7.60;4.50;;;5.70;99.90;;;;;;5096750;28;20479;-69
2024/03/26 06:32:26;;;;;;;6.50;4.03;;;5.80;99.90;;;;;;5118470;27;20065;-68
2024/03/26 06:35:12;;;;;;;7.75;4.05;;;5.80;99.90;;;;;;5092949;27;20109;-68
2024/03/26 06:37:58;;;;;;;6.97;4.70;;;5.90;99.90;;;;;;5104959;28;20050;-69
2024/03/26 06:40:44;;;;;;;7.85;4.55;;;6.00;99.90;;;;;;5098092;28;20116;-70
2024/03/26 06:43:30;;;;;;;6.45;3.70;;;6.00;99.90;;;;;;5106572;27;20036;-69
2024/03/26 06:46:16;;;;;;;7.78;4.72;;;6.10;99.90;;;;;;5099278;28;20049;-66
2024/03/26 06:49:02;;;;;;;8.05;4.57;;;6.20;99.90;;;;;;5092564;27;20042;-67
2024/03/26 06:51:48;;;;;;;9.23;5.40;;;6.30;99.90;;;;;;5110794;28;20038;-67
2024/03/26 06:54:34;;;;;;;7.20;4.03;;;6.40;99.90;;;;;;5096359;28;20035;-70
2024/03/26 06:57:20;;;;;;;9.02;5.45;;;6.50;99.90;;;;;;5082493;28;20341;-67
2024/03/26 07:00:12;;;;;;;7.90;5.45;;;6.60;99.90;;;;;;5109920;28;20038;-68
2024/03/26 07:02:58;;;;;;;7.72;4.93;;;6.70;99.90;;;;;;5093281;28;20034;-68
2024/03/26 07:05:43;;;;;;;7.53;5.60;;;6.80;99.90;;;;;;5112076;27;20050;-70
2024/03/26 07:08:31;;;;;;;7.80;5.38;;;6.90;99.90;;;;;;5093077;28;20021;-68
2024/03/26 07:11:17;;;;;;;10.00;5.38;;;7.10;99.90;;;;;;5101789;28;20129;-69
2024/03/26 07:14:03;;;;;;;7.50;5.20;;;7.20;99.90;;;;;;5103459;28;20028;-69
2024/03/26 07:16:49;;;;;;;9.55;5.60;;;7.30;99.90;;;;;;5097342;28;20463;-70
2024/03/26 07:19:35;;;;;;;8.55;4.78;;;7.40;99.90;;;;;;5109802;28;20308;-68
2024/03/26 07:22:21;;;;;;;6.55;4.53;;;7.60;99.90;;;;;;5091448;28;20032;-68
2024/03/26 07:25:07;;;;;;;7.70;4.93;;;7.70;99.80;;;;;;5089857;28;20059;-68
2024/03/26 07:27:53;;;;;;;6.78;5.13;;;7.80;99.70;;;;;;5086173;27;20038;-65
2024/03/26 07:30:39;;;;;;;7.80;5.00;;;7.90;99.60;;;;;;5111205;27;20077;-68
2024/03/26 07:33:26;;;;;;;7.20;4.45;;;8.10;99.50;;;;;;5108597;28;20374;-67
2024/03/26 07:36:12;;;;;;;7.50;4.78;;;8.20;99.30;;;;;;5107207;28;20407;-67
2024/03/26 07:38:58;;;;;;;6.80;4.55;;;8.30;99.20;;;;;;5095501;27;20065;-66
2024/03/26 07:41:44;;;;;;;9.93;5.10;;;8.40;99.10;;;;;;5100573;28;20031;-66
2024/03/26 07:44:30;;;;;;;10.98;4.63;;;8.50;98.90;;;;;;5111966;28;20028;-66
2024/03/26 07:47:16;;;;;;;6.75;4.05;;;8.60;98.60;;;;;;5101131;28;20035;-68
2024/03/26 07:50:02;;;;;;;7.35;4.10;;;8.70;98.40;;;;;;5108404;28;20057;-67
2024/03/26 07:52:51;;;;;;;7.13;3.75;;;8.70;98.20;;;;;;5102101;28;20038;-67
2024/03/26 07:55:37;;;;;;;6.15;3.25;;;8.80;97.80;;;;;;5095801;28;20123;-67
2024/03/26 07:58:23;;;;;;;6.43;3.55;;;8.90;97.80;;;;;;5108013;28;20422;-67
2024/03/26 08:01:09;;;;;;;6.28;3.45;;;9.00;97.50;;;;;;5110191;28;20074;-67
2024/03/26 08:03:55;;;;;;;5.47;3.60;;;9.10;97.20;;;;;;5101985;28;20408;-68
2024/03/26 08:06:41;;;;;;;7.70;3.75;;;9.20;96.80;;;;;;5093441;28;20472;-71
2024/03/26 08:09:29;;;;;;;4.45;3.05;;;9.20;96.70;;;;;;5102967;28;20435;-69
2024/03/26 08:12:15;;;;;;;5.55;3.00;;;9.40;96.70;;;;;;5093710;28;20472;-68
2024/03/26 08:15:01;;;;;;;4.10;2.85;;;9.40;96.50;;;;;;5091291;28;20040;-69
2024/03/26 08:17:48;;;;;;;6.30;3.65;;;9.60;96.30;;;;;;5099309;28;20510;-68
2024/03/26 08:20:33;;;;;;;5.18;3.10;;;9.70;95.90;;;;;;5099605;27;20036;-68
2024/03/26 08:23:19;;;;;;;5.60;3.17;;;9.80;95.70;;;;;;5090892;28;20144;-68
2024/03/26 08:26:05;;;;;;;4.20;2.80;;;9.90;95.60;;;;;;5100937;28;20020;-68
2024/03/26 08:28:51;;;;;;;6.55;3.05;;;9.90;95.20;;;;;;5101035;28;20148;-68
2024/03/26 08:31:37;;;;;;;12.13;3.10;;;10.10;95.10;;;;;;5096473;28;20447;-69
2024/03/26 08:34:23;;;;;;;4.68;2.70;;;10.10;94.80;;;;;;5089559;28;20118;-68
2024/03/26 08:37:09;;;;;;;5.25;3.22;;;10.30;94.70;;;;;;5099679;28;20066;-68
2024/03/26 08:39:55;;;;;;;5.63;2.65;;;10.40;94.60;;;;;;5096365;28;20024;-67
2024/03/26 08:42:41;;;;;;;5.13;2.67;;;10.50;94.30;;;;;;5103020;28;20637;-68
2024/03/26 08:45:27;;;;;;;3.83;2.67;;;10.60;94.10;;;;;;5093801;28;20027;-68
2024/03/26 08:48:13;;;;;;;4.32;2.92;;;10.70;93.70;;;;;;5110115;28;20364;-68
2024/03/26 08:50:59;;;;;;;3.95;2.75;;;10.80;93.40;;;;;;5105521;28;20049;-68
2024/03/26 08:53:45;;;;;;;3.55;2.03;;;10.80;93.30;;;;;;5110299;28;20480;-69
2024/03/26 08:56:31;;;;;;;4.25;2.67;;;10.90;93.20;;;;;;5088847;28;20044;-69
2024/03/26 08:59:17;;;;;;;8.13;3.17;;;11.00;93.00;;;;;;5106810;28;20031;-69
2024/03/26 09:02:03;;;;;;;9.02;2.80;;;11.10;92.90;;;;;;5103063;28;20032;-68
2024/03/26 09:04:49;;;;;;;5.05;3.20;;;11.30;92.90;;;;;;5095703;28;20039;-68
2024/03/26 09:07:36;;;;;;;4.47;2.75;;;11.40;92.50;;;;;;5107566;28;20040;-68
2024/03/26 09:10:22;;;;;;;4.72;3.08;;;11.50;92.50;;;;;;5106271;28;20038;-68
2024/03/26 09:13:08;;;;;;;5.13;3.00;;;11.50;91.80;;;;;;5091424;28;20488;-68
2024/03/26 09:15:54;;;;;;;4.35;2.95;;;11.60;91.40;;;;;;5107483;28;20411;-69
2024/03/26 09:18:40;;;;;;;4.90;3.22;;;11.60;91.60;;;;;;5104976;28;20031;-68
2024/03/26 09:21:26;;;;;;;3.20;2.33;;;11.70;91.50;;;;;;5102742;28;20032;-69
2024/03/26 09:24:12;;;;;;;4.03;2.67;;;11.70;91.00;;;;;;5109761;28;20030;-71
2024/03/26 09:26:57;;;;;;;5.38;2.85;;;11.70;90.80;;;;;;5109695;28;20036;-71
2024/03/26 09:29:43;;;;;;;5.10;2.80;;;11.80;90.60;;;;;;5093514;28;20028;-68
2024/03/26 09:32:29;;;;;;;3.58;2.30;;;11.90;90.50;;;;;;5101904;28;20086;-69
2024/03/26 09:35:15;;;;;;;3.08;2.35;;;11.90;90.10;;;;;;5099288;28;20044;-68
2024/03/26 09:38:01;;;;;;;3.30;2.05;;;11.90;88.30;;;;;;5096245;28;20396;-69
2024/03/26 09:40:47;;;;;;;3.55;1.98;;;11.90;87.20;;;;;;5095431;28;20050;-68
2024/03/26 09:43:36;;;;;;;2.60;1.80;;;11.90;86.40;;;;;;5117328;28;20050;-69
2024/03/26 09:46:23;;;;;;;2.95;1.92;;;11.90;86.70;;;;;;5107898;28;20028;-69
2024/03/26 09:49:10;;;;;;;2.65;1.80;;;12.00;86.00;;;;;;5108495;28;20039;-69
2024/03/26 09:52:00;;;;;;;3.20;1.80;;;12.00;84.00;;;;;;5098353;28;20028;-69
2024/03/26 09:54:49;;;;;;;3.42;1.70;;;12.00;84.20;;;;;;5088938;28;20077;-69
2024/03/26 09:57:35;;;;;;;4.05;2.30;;;12.00;84.70;;;;;;5115311;28;20131;-69
2024/03/26 10:00:21;;;;;;;4.03;1.65;;;12.00;83.30;;;;;;5088819;28;20028;-69
2024/03/26 10:03:08;;;;;;;3.42;2.25;;;12.00;83.40;;;;;;5094712;28;20033;-68
2024/03/26 10:05:54;;;;;;;3.38;1.85;;;12.10;83.60;;;;;;5093905;28;20067;-68
2024/03/26 10:08:40;;;;;;;2.55;2.00;;;12.10;83.60;;;;;;5099696;27;20042;-68
2024/03/26 10:11:27;;;;;;;2.85;2.00;;;12.10;82.80;;;;;;5093382;28;20044;-68
2024/03/26 10:14:13;;;;;;;4.55;2.17;;;12.20;82.70;;;;;;5096418;28;20036;-69
2024/03/26 10:16:59;;;;;;;2.92;1.60;;;12.30;82.50;;;;;;5111606;28;20456;-68
2024/03/26 10:19:46;;;;;;;3.67;1.92;;;12.30;82.80;;;;;;5102352;28;20028;-68
2024/03/26 10:22:32;;;;;;;2.70;1.73;;;12.40;82.40;;;;;;5106561;28;20036;-68
2024/03/26 10:25:20;;;;;;;3.22;1.90;;;12.40;82.20;;;;;;5093880;28;20073;-68
2024/03/26 10:28:06;;;;;;;3.45;1.92;;;12.50;80.60;;;;;;5092095;28;20046;-68
2024/03/26 10:30:52;;;;;;;4.53;2.30;;;12.60;81.50;;;;;;5094647;28;20027;-68
2024/03/26 10:33:38;;;;;;;2.58;1.80;;;12.60;81.20;;;;;;5111557;28;20036;-68
2024/03/26 10:36:25;;;;;;;3.00;1.75;;;12.70;81.70;;;;;;5105529;28;20044;-68
2024/03/26 10:39:14;;;;;;;3.15;2.10;;;12.80;81.80;;;;;;5109851;28;20028;-67
2024/03/26 10:42:01;;;;;;;2.83;1.75;;;12.80;80.60;;;;;;5101794;28;20146;-68
2024/03/26 10:44:48;;;;;;;2.67;1.88;;;12.80;81.00;;;;;;5096213;28;20028;-68
2024/03/26 10:47:37;;;;;;;2.40;1.65;;;12.90;80.20;;;;;;5108003;28;20045;-68
2024/03/26 10:50:24;;;;;;;3.53;2.35;;;13.00;80.10;;;;;;5097093;28;20402;-68
2024/03/26 10:53:12;;;;;;;2.80;1.92;;;13.00;80.40;;;;;;5107594;28;20498;-68
2024/03/26 10:55:58;;;;;;;2.85;1.70;;;13.10;80.30;;;;;;5095360;28;20048;-68
2024/03/26 10:58:44;;;;;;;2.58;1.60;;;13.20;80.60;;;;;;5105775;28;20023;-68
2024/03/26 11:01:31;;;;;;;4.00;1.70;;;13.30;80.60;;;;;;5096569;28;20213;-68
2024/03/26 11:04:17;;;;;;;3.83;1.90;;;13.30;79.60;;;;;;5110419;28;20031;-68
2024/03/26 11:07:03;;;;;;;3.05;2.03;;;13.40;79.50;;;;;;5112344;28;20070;-68
2024/03/26 11:10:00;;;;;;;3.00;1.63;;;13.50;79.30;;;;;;5106050;28;20024;-69
2024/03/26 11:12:50;;;;;;;1.55;1.40;;;13.60;78.80;;;;;;5111000;28;20073;-69
2024/03/26 11:15:36;;;;;;;2.67;1.95;;;13.70;78.50;;;;;;5095676;28;20075;-67
2024/03/26 11:18:33;;;;;;;1.77;1.60;;;13.80;78.70;;;;;;5090251;28;20054;-67
2024/03/26 11:21:19;;;;;;;4.57;1.92;;;13.90;76.90;;;;;;5104035;28;20479;-68
2024/03/26 11:24:05;;;;;;;6.15;1.83;;;14.00;77.80;;;;;;5103098;28;20031;-68
2024/03/26 11:26:51;;;;;;;2.95;2.00;;;14.10;76.50;;;;;;5091195;28;20024;-68
2024/03/26 11:29:42;;;;;;;2.83;2.10;;;14.10;77.10;;;;;;5111578;28;20074;-68
2024/03/26 11:32:33;;;;;;;3.13;1.63;;;14.20;76.50;;;;;;5110828;28;20035;-68
2024/03/26 11:35:26;;;;;;;2.97;1.92;;;14.40;76.70;;;;;;5110294;28;20114;-68
2024/03/26 11:38:12;;;;;;;2.85;1.75;;;14.50;76.60;;;;;;5099482;28;20071;-67
2024/03/26 11:40:58;;;;;;;2.78;1.83;;;14.60;75.80;;;;;;5105041;28;20059;-67
2024/03/26 11:43:44;;;;;;;2.65;1.80;;;14.80;75.20;;;;;;5110762;28;20034;-67
2024/03/26 11:46:30;;;;;;;2.85;1.80;;;14.80;74.40;;;;;;5114776;27;20490;-68
2024/03/26 11:49:16;;;;;;;2.33;1.60;;;14.80;74.50;;;;;;5124163;27;20023;-68
2024/03/26 11:52:03;;;;;;;3.13;1.70;;;14.90;74.80;;;;;;5111154;28;20024;-68
2024/03/26 11:54:50;;;;;;;2.25;1.60;;;14.90;74.10;;;;;;5110462;28;20403;-68
2024/03/26 11:57:36;;;;;;;2.75;1.90;;;15.00;74.50;;;;;;5106012;28;20139;-69
2024/03/26 12:00:23;;;;;;;4.40;1.70;;;15.10;74.20;;;;;;5111351;28;20028;-68
2024/03/26 12:03:09;;;;;;;4.03;1.90;;;15.20;73.90;;;;;;5090435;28;20494;-68
2024/03/26 12:05:55;;;;;;;2.97;1.70;;;15.20;73.70;;;;;;5092374;28;20028;-68
2024/03/26 12:08:41;;;;;;;3.63;1.73;;;15.10;73.30;;;;;;5100234;27;20032;-68
2024/03/26 12:11:27;;;;;;;3.00;1.88;;;15.10;72.90;;;;;;5109590;28;20028;-68
2024/03/26 12:14:13;;;;;;;4.00;2.25;;;15.10;72.60;;;;;;5106144;28;20028;-68
2024/03/26 12:16:59;;;;;;;2.85;1.75;;;15.10;72.00;;;;;;5113960;27;20088;-68
2024/03/26 12:19:45;;;;;;;4.15;1.90;;;15.00;72.30;;;;;;5110524;27;20023;-68
2024/03/26 12:22:32;;;;;;;4.25;1.92;;;15.10;72.70;;;;;;5094840;28;20039;-68
2024/03/26 12:25:18;;;;;;;4.30;2.10;;;15.10;72.60;;;;;;5092953;28;20386;-68
2024/03/26 12:28:05;;;;;;;3.50;2.30;;;15.20;72.70;;;;;;5109045;28;20042;-68
2024/03/26 12:30:51;;;;;;;3.03;2.03;;;15.20;72.70;;;;;;5110052;28;20273;-68
2024/03/26 12:33:37;;;;;;;4.80;1.98;;;15.20;72.60;;;;;;5107813;28;20363;-68
2024/03/26 12:36:24;;;;;;;5.03;2.00;;;15.30;72.80;;;;;;5099767;28;20043;-69
2024/03/26 12:39:11;;;;;;;5.85;2.05;;;15.30;72.80;;;;;;5096788;28;20035;-68
2024/03/26 12:41:57;;;;;;;2.75;1.90;;;15.40;72.40;;;;;;5074066;28;20031;-68
2024/03/26 12:44:46;;;;;;;3.63;1.85;;;15.40;72.00;;;;;;5089530;28;20422;-67
2024/03/26 12:47:32;;;;;;;5.75;2.40;;;15.50;71.80;;;;;;5089551;28;20039;-67
2024/03/26 12:50:18;;;;;;;4.70;2.05;;;15.50;71.70;;;;;;5089535;28;20058;-68
2024/03/26 12:53:04;;;;;;;4.03;1.92;;;15.50;70.50;;;;;;5090463;28;20028;-68
2024/03/26 12:55:50;;;;;;;2.40;1.60;;;15.60;70.90;;;;;;5105036;28;20050;-68
2024/03/26 12:58:36;;;;;;;4.43;1.80;;;15.60;71.10;;;;;;5101116;28;20031;-68
2024/03/26 13:01:22;;;;;;;2.78;1.60;;;15.70;71.50;;;;;;5088877;28;20081;-68
2024/03/26 13:04:12;;;;;;;4.05;2.20;;;15.70;71.50;;;;;;5088417;28;20059;-69
2024/03/26 13:06:58;;;;;;;4.85;2.15;;;15.80;71.30;;;;;;5087884;28;20472;-68
2024/03/26 13:09:49;;;;;;;2.97;1.90;;;15.80;71.50;;;;;;5100215;28;20043;-68
2024/03/26 13:12:35;;;;;;;4.32;1.92;;;15.80;71.30;;;;;;5093541;28;20093;-68
2024/03/26 13:15:21;;;;;;;3.80;2.00;;;15.90;71.40;;;;;;5089444;28;20046;-67
2024/03/26 13:18:07;;;;;;;2.65;2.05;;;15.90;71.30;;;;;;5098596;28;20035;-67
2024/03/26 13:20:53;;;;;;;3.45;2.40;;;15.90;71.20;;;;;;5089531;28;20039;-67
2024/03/26 13:23:40;;;;;;;2.88;2.30;;;15.90;71.20;;;;;;5089044;28;20142;-68
2024/03/26 13:26:25;;;;;;;4.97;2.20;;;15.90;71.60;;;;;;5083199;28;20034;-68
2024/03/26 13:29:11;;;;;;;3.40;2.20;;;15.90;71.80;;;;;;5075164;28;20028;-68
2024/03/26 13:31:57;;;;;;;4.13;2.75;;;15.90;71.60;;;;;;5095766;28;20040;-67
2024/03/26 13:34:43;;;;;;;5.53;2.38;;;15.90;71.80;;;;;;5109510;28;20110;-70
2024/03/26 13:37:38;;;;;;;3.90;2.33;;;15.90;71.60;;;;;;5104204;28;20055;-70
2024/03/26 13:40:24;;;;;;;4.38;2.22;;;16.00;71.40;;;;;;5109710;28;20088;-72
2024/03/26 13:43:10;;;;;;;3.85;2.50;;;16.00;71.20;;;;;;5110424;28;20032;-70
2024/03/26 13:45:56;;;;;;;6.40;2.45;;;16.00;71.30;;;;;;5093242;28;20032;-70
2024/03/26 13:48:41;;;;;;;4.40;2.30;;;16.20;71.60;;;;;;5097618;28;20377;-70
2024/03/26 13:51:27;;;;;;;4.82;2.20;;;16.20;71.40;;;;;;5093021;28;20043;-71
2024/03/26 13:54:13;;;;;;;3.85;2.33;;;16.30;71.30;;;;;;5108174;28;20070;-70
2024/03/26 13:56:59;;;;;;;3.53;2.33;;;16.30;71.60;;;;;;5099284;28;20035;-70
2024/03/26 13:59:45;;;;;;;5.78;2.45;;;16.40;71.80;;;;;;5092163;27;20032;-70
2024/03/26 14:02:31;;;;;;;2.97;2.13;;;16.50;71.80;;;;;;5093228;28;20028;-71
2024/03/26 14:05:18;;;;;;;5.80;2.20;;;16.50;71.40;;;;;;5093692;28;20123;-70
2024/03/26 14:08:04;;;;;;;3.63;2.35;;;16.50;71.10;;;;;;5106997;28;20052;-70
2024/03/26 14:10:50;;;;;;;3.70;2.40;;;16.40;71.00;;;;;;5101735;28;20032;-70
2024/03/26 14:13:37;;;;;;;3.95;2.38;;;16.40;71.20;;;;;;5093487;27;20036;-70
2024/03/26 14:16:24;;;;;;;3.00;2.00;;;16.40;71.20;;;;;;5100827;28;20051;-70
2024/03/26 14:19:10;;;;;;;4.93;2.28;;;16.40;71.00;;;;;;5108401;27;20028;-68
2024/03/26 14:21:57;;;;;;;4.90;2.40;;;16.40;70.60;;;;;;5092743;28;20064;-67
2024/03/26 14:24:43;;;;;;;4.35;2.20;;;16.40;70.20;;;;;;5109449;28;20031;-69
2024/03/26 14:27:29;;;;;;;4.55;2.17;;;16.40;70.40;;;;;;5112688;28;20119;-66
2024/03/26 14:30:16;;;;;;;5.90;2.50;;;16.30;69.80;;;;;;5113150;28;20028;-72
2024/03/26 14:33:02;;;;;;;5.28;2.22;;;16.30;69.80;;;;;;5089823;28;20051;-71
2024/03/26 14:35:48;;;;;;;3.45;2.30;;;16.20;70.10;;;;;;5101550;28;20481;-69
2024/03/26 14:38:34;;;;;;;3.30;2.13;;;16.20;70.20;;;;;;5112778;28;20467;-69
2024/03/26 14:41:20;;;;;;;3.33;2.05;;;16.30;70.30;;;;;;5122462;27;20049;-70
2024/03/26 14:44:09;;;;;;;4.57;2.22;;;16.20;70.50;;;;;;5116728;27;20031;-69
2024/03/26 14:46:55;;;;;;;4.43;2.28;;;16.20;69.80;;;;;;5097927;28;20035;-70
2024/03/26 14:49:41;;;;;;;4.88;2.50;;;16.20;69.90;;;;;;5092671;28;20046;-69
2024/03/26 14:52:27;;;;;;;3.08;2.38;;;16.20;69.90;;;;;;5104227;27;20111;-70
2024/03/26 14:55:13;;;;;;;5.13;2.38;;;16.10;70.10;;;;;;5091179;28;20122;-69
2024/03/26 14:57:59;;;;;;;4.22;2.30;;;16.20;69.70;;;;;;5082057;28;20040;-70
2024/03/26 15:00:46;;;;;;;2.83;1.95;;;16.20;70.00;;;;;;5092930;28;20115;-71
2024/03/26 15:03:32;;;;;;;3.67;2.40;;;16.30;70.00;;;;;;5108808;28;20065;-70
2024/03/26 15:06:21;;;;;;;5.55;2.40;;;16.40;69.90;;;;;;5016690;28;20037;-74
2024/03/26 15:09:07;;;;;;;4.65;2.17;;;16.40;70.00;;;;;;5000180;28;20057;-74